createdAt,value
2023-05-05T00:04:48.362Z,2.67
2023-05-05T00:14:57.092Z,2.78
2023-05-05T00:25:06.079Z,2.79
2023-05-05T00:35:16.860Z,2.78
2023-05-05T00:45:16.341Z,2.53
2023-05-05T00:55:25.351Z,3.33
2023-05-05T01:05:34.835Z,3.26
2023-05-05T01:15:43.586Z,2.81
2023-05-05T01:25:52.425Z,3.45
2023-05-05T01:36:01.189Z,3.74
2023-05-05T01:46:10.993Z,4.13
2023-05-05T01:56:19.710Z,4.77
2023-05-05T02:06:35.215Z,4.58
2023-05-05T02:16:33.911Z,4.02
2023-05-05T02:26:42.746Z,4.59
2023-05-05T02:36:51.738Z,5.58
2023-05-05T02:47:00.530Z,6.3
2023-05-05T02:57:09.230Z,5.64
2023-05-05T03:07:18.247Z,6.01
2023-05-05T03:17:28.217Z,6.7
2023-05-05T03:27:36.936Z,8.32
2023-05-05T03:37:45.572Z,8.79
2023-05-05T03:47:54.145Z,8.76
2023-05-05T03:58:02.750Z,8.97
2023-05-05T04:08:11.439Z,8.61
2023-05-05T04:18:19.953Z,8.33
2023-05-05T04:28:28.149Z,7.8
2023-05-05T04:38:36.912Z,8.6
2023-05-05T04:48:45.587Z,7.7
2023-05-05T04:58:54.386Z,6.99
2023-05-05T05:09:09.503Z,7.47
2023-05-05T05:19:07.774Z,8.47
2023-05-05T05:29:16.680Z,8.29
2023-05-05T05:39:25.560Z,8.46
2023-05-05T05:49:34.760Z,7.66
2023-05-05T05:59:52.209Z,8.84
2023-05-05T06:10:14.933Z,9.34
2023-05-05T06:19:54.489Z,9.41
2023-05-05T06:29:55.216Z,9.54
2023-05-05T06:39:54.144Z,9.44
2023-05-05T06:50:04.732Z,10.71
2023-05-05T07:00:03.711Z,12.13
2023-05-05T07:10:12.608Z,10.3
2023-05-05T07:20:20.946Z,8.97
2023-05-05T07:30:29.232Z,6.47
2023-05-05T07:40:38.035Z,7.2
2023-05-05T07:50:46.803Z,5.44
2023-05-05T08:00:56.776Z,4.22
2023-05-05T08:11:09.491Z,3.18
2023-05-05T08:21:08.131Z,4.06
2023-05-05T08:51:23.318Z,2.6
2023-05-05T09:01:22.244Z,2.45
2023-05-05T09:11:30.973Z,1.81
2023-05-05T09:31:42.132Z,2.27
2023-05-05T09:41:51.390Z,2.23
2023-05-05T09:52:00.146Z,1.68
2023-05-05T10:02:08.805Z,1.72
2023-05-05T10:12:17.559Z,1.71
2023-05-05T10:22:26.277Z,1.73
2023-05-05T10:32:54.264Z,1.9
2023-05-05T10:42:43.116Z,1.45
2023-05-05T10:52:53.038Z,1.94
2023-05-05T11:03:02.193Z,1.99
2023-05-05T11:13:10.839Z,2.02
2023-05-05T11:23:19.160Z,2.13
2023-05-05T11:33:27.912Z,2.07
2023-05-05T11:43:36.767Z,2.27
2023-05-05T11:53:45.542Z,2.22
2023-05-05T12:03:54.575Z,2.04
2023-05-05T12:14:03.338Z,2.32
2023-05-05T12:24:12.115Z,2.08
2023-05-05T12:34:21.218Z,1.82
2023-05-05T12:44:32.891Z,1.64
2023-05-05T12:54:35.423Z,1.74
2023-05-05T13:04:34.111Z,1.89
2023-05-05T13:14:42.873Z,1.92
2023-05-05T13:24:52.620Z,1.82
2023-05-05T13:34:58.337Z,2.27
2023-05-05T13:45:07.249Z,1.88
2023-05-05T13:55:15.926Z,2.36
2023-05-05T14:05:24.569Z,1.88
2023-05-05T14:15:33.371Z,2.02
2023-05-05T14:25:44.274Z,1.78
2023-05-05T14:35:44.077Z,2.02
2023-05-05T14:45:53.396Z,1.86
2023-05-05T14:56:02.155Z,1.96
2023-05-05T15:06:10.987Z,1.53
2023-05-05T15:16:19.787Z,1.64
2023-05-05T15:26:28.500Z,1.66
2023-05-05T15:36:37.370Z,2.2
2023-05-05T15:46:50.425Z,1.65
2023-05-05T15:56:47.191Z,1.43
2023-05-05T16:06:56.078Z,1.7
2023-05-05T16:17:07.321Z,1.74
2023-05-05T16:27:05.797Z,1.72
2023-05-05T16:37:14.620Z,1.78
2023-05-05T16:47:23.519Z,2
2023-05-05T16:57:32.224Z,2.07
2023-05-05T17:07:40.906Z,2.03
2023-05-05T17:17:49.135Z,2.39
2023-05-05T17:27:58.941Z,2.31
2023-05-05T17:38:08.810Z,2.05
2023-05-05T17:48:17.613Z,2.11
2023-05-05T17:58:29.672Z,2.37
2023-05-05T18:08:37.202Z,2.68
2023-05-05T18:18:36.167Z,3.14
2023-05-05T18:28:47.570Z,2.71
2023-05-05T18:38:48.371Z,2.96
2023-05-05T18:48:47.624Z,3.22
2023-05-05T18:58:57.231Z,3.47
2023-05-05T19:09:05.958Z,3.67
2023-05-05T19:19:14.682Z,3.71
2023-05-05T19:29:23.607Z,3.94
2023-05-05T19:39:34.100Z,4.56
2023-05-05T19:49:34.597Z,4.24
2023-05-05T19:59:33.963Z,4.23
2023-05-05T20:09:42.674Z,4.41
2023-05-05T20:19:53.052Z,5.05
2023-05-05T20:29:51.781Z,3.8
2023-05-05T20:40:00.693Z,3.82
2023-05-05T20:50:15.827Z,3.19
2023-05-05T21:00:17.365Z,2.93
2023-05-05T21:10:16.032Z,3.22
2023-05-05T21:20:24.761Z,3.16
2023-05-05T21:30:33.482Z,2.86
2023-05-05T21:40:42.190Z,2.58
2023-05-05T21:50:50.848Z,2.37
2023-05-05T22:00:59.608Z,2.03
2023-05-05T22:11:08.233Z,2.75
2023-05-05T22:21:16.904Z,2.59
2023-05-05T22:31:25.697Z,2.36
2023-05-05T22:41:34.469Z,3.51
2023-05-05T22:51:43.039Z,4.21
2023-05-05T23:01:51.643Z,3.39
2023-05-05T23:12:00.318Z,3.39
2023-05-05T23:22:08.923Z,4.07
2023-05-05T23:32:17.569Z,3.98
2023-05-05T23:42:26.186Z,4.57
2023-05-05T23:52:35.434Z,4.31
